createdAt,value
2023-05-22T00:01:27.857Z,65.53
2023-05-22T00:03:55.229Z,65.52
2023-05-22T00:06:23.798Z,65.57
2023-05-22T00:08:51.017Z,65.45
2023-05-22T00:11:18.438Z,65.59
2023-05-22T00:13:46.568Z,65.48
2023-05-22T00:16:13.854Z,65.33
2023-05-22T00:18:42.475Z,65.43
2023-05-22T00:21:10.463Z,65.33
2023-05-22T00:23:37.719Z,65.36
2023-05-22T00:26:04.769Z,65.56
2023-05-22T00:28:32.046Z,65.54
2023-05-22T00:30:59.291Z,65.56
2023-05-22T00:33:26.952Z,65.48
2023-05-22T00:35:53.875Z,65.32
2023-05-22T00:38:32.867Z,65.11
2023-05-22T00:41:03.038Z,65.04
2023-05-22T00:43:30.877Z,65.31
2023-05-22T00:45:58.560Z,65.52
2023-05-22T00:48:27.370Z,65.70
2023-05-22T00:50:57.365Z,65.68
2023-05-22T00:53:25.983Z,65.73
2023-05-22T00:55:53.995Z,65.57
2023-05-22T00:58:21.946Z,65.49
2023-05-22T01:00:49.079Z,65.69
2023-05-22T01:03:18.982Z,65.90
2023-05-22T01:05:46.201Z,65.90
2023-05-22T01:08:13.761Z,65.58
2023-05-22T01:10:41.480Z,65.37
2023-05-22T01:13:09.234Z,65.25
2023-05-22T01:15:47.855Z,65.09
2023-05-22T01:18:35.021Z,65.19
2023-05-22T01:21:16.418Z,65.17
2023-05-22T01:23:59.976Z,65.20
2023-05-22T01:27:01.779Z,65.17
2023-05-22T01:29:43.368Z,65.37
2023-05-22T01:32:14.663Z,65.39
2023-05-22T01:34:45.162Z,65.39
2023-05-22T01:37:14.268Z,65.55
2023-05-22T01:39:42.474Z,65.62
2023-05-22T01:42:10.039Z,65.80
2023-05-22T01:44:37.758Z,65.92
2023-05-22T01:47:05.880Z,66.21
2023-05-22T01:49:35.631Z,66.18
2023-05-22T01:52:12.870Z,66.36
2023-05-22T01:54:50.326Z,66.52
2023-05-22T01:57:43.682Z,66.68
2023-05-22T02:00:15.186Z,66.70
2023-05-22T02:02:49.622Z,66.88
2023-05-22T02:05:21.914Z,67.17
2023-05-22T02:07:50.257Z,67.46
2023-05-22T02:10:20.488Z,67.56
2023-05-22T02:12:48.641Z,67.64
2023-05-22T02:15:16.902Z,67.66
2023-05-22T02:17:45.630Z,67.83
2023-05-22T02:20:15.677Z,68.01
2023-05-22T02:22:47.339Z,68.16
2023-05-22T02:25:17.564Z,68.48
2023-05-22T02:27:48.080Z,68.82
2023-05-22T02:30:15.628Z,68.85
2023-05-22T02:32:44.438Z,68.95
2023-05-22T02:35:12.156Z,69.10
2023-05-22T02:37:39.315Z,69.09
2023-05-22T02:40:07.700Z,69.16
2023-05-22T02:42:35.251Z,69.26
2023-05-22T02:45:03.032Z,69.21
2023-05-22T02:47:30.429Z,69.15
2023-05-22T02:50:00.642Z,69.46
2023-05-22T02:52:28.673Z,69.62
2023-05-22T02:54:56.034Z,69.55
2023-05-22T02:57:23.663Z,69.38
2023-05-22T02:59:51.292Z,69.38
2023-05-22T03:02:19.782Z,69.44
2023-05-22T03:04:48.883Z,69.46
2023-05-22T03:07:16.003Z,69.49
2023-05-22T03:09:43.254Z,69.27
2023-05-22T03:12:10.536Z,69.30
2023-05-22T03:14:37.993Z,69.04
2023-05-22T03:17:05.554Z,69.09
2023-05-22T03:19:33.166Z,69.16
2023-05-22T03:22:00.375Z,69.25
2023-05-22T03:24:27.957Z,69.10
2023-05-22T03:26:55.012Z,68.90
2023-05-22T03:29:32.595Z,68.68
2023-05-22T03:31:59.993Z,68.62
2023-05-22T03:34:27.767Z,68.69
2023-05-22T03:36:57.400Z,68.68
2023-05-22T03:39:24.883Z,68.67
2023-05-22T03:41:57.425Z,68.49
2023-05-22T03:44:25.569Z,68.09
2023-05-22T03:46:53.570Z,67.72
2023-05-22T03:49:20.947Z,67.06
2023-05-22T03:51:47.899Z,66.80
2023-05-22T03:54:16.478Z,66.75
2023-05-22T03:56:44.053Z,66.07
2023-05-22T03:59:11.731Z,66.32
2023-05-22T04:01:39.690Z,65.72
2023-05-22T04:04:07.043Z,65.61
2023-05-22T04:06:34.271Z,66.30
2023-05-22T04:09:01.443Z,65.57
2023-05-22T04:11:30.653Z,65.13
2023-05-22T04:14:03.930Z,64.81
2023-05-22T04:16:31.003Z,63.61
2023-05-22T04:18:58.948Z,62.87
2023-05-22T04:21:26.599Z,62.06
2023-05-22T04:23:54.127Z,61.41
2023-05-22T04:26:21.249Z,59.95
2023-05-22T04:28:49.607Z,59.95
2023-05-22T04:31:17.206Z,59.40
2023-05-22T04:33:48.415Z,58.27
2023-05-22T04:36:15.839Z,57.33
2023-05-22T04:38:44.922Z,57.45
2023-05-22T04:41:13.583Z,57.88
2023-05-22T04:43:41.128Z,57.27
2023-05-22T04:46:08.784Z,54.82
2023-05-22T04:48:37.968Z,53.68
2023-05-22T04:51:06.319Z,53.22
2023-05-22T04:53:34.075Z,52.05
2023-05-22T04:56:00.952Z,53.36
2023-05-22T04:58:29.616Z,50.40
2023-05-22T05:00:57.837Z,50.82
2023-05-22T05:03:25.778Z,49.60
2023-05-22T05:05:53.278Z,47.80
2023-05-22T05:08:21.815Z,47.14
2023-05-22T05:10:49.053Z,46.31
2023-05-22T05:13:16.604Z,45.30
2023-05-22T05:15:45.584Z,44.95
2023-05-22T05:18:13.531Z,44.98
2023-05-22T05:20:42.742Z,44.93
2023-05-22T05:23:10.502Z,43.65
2023-05-22T05:25:38.970Z,45.61
2023-05-22T05:28:10.901Z,46.28
2023-05-22T05:30:40.308Z,46.78
2023-05-22T05:33:34.201Z,47.71
2023-05-22T05:36:36.938Z,47.90
2023-05-22T05:39:04.918Z,48.87
2023-05-22T05:41:34.925Z,49.01
2023-05-22T05:44:07.772Z,49.04
2023-05-22T05:46:35.927Z,49.43
2023-05-22T05:49:11.314Z,49.26
2023-05-22T05:51:40.610Z,49.81
2023-05-22T05:54:09.197Z,49.95
2023-05-22T05:56:37.678Z,50.22
2023-05-22T05:59:05.384Z,49.96
2023-05-22T06:01:55.494Z,50.50
2023-05-22T06:04:28.504Z,50.85
2023-05-22T06:06:56.291Z,50.88
2023-05-22T06:09:40.823Z,50.35
2023-05-22T06:12:14.943Z,50.47
2023-05-22T06:14:45.899Z,50.72
2023-05-22T06:17:14.823Z,50.52
2023-05-22T06:19:43.927Z,49.96
2023-05-22T06:22:11.063Z,48.61
2023-05-22T06:24:41.558Z,48.48
2023-05-22T06:27:14.987Z,49.27
2023-05-22T06:29:42.405Z,50.49
2023-05-22T06:32:09.997Z,50.45
2023-05-22T06:34:40.529Z,49.73
2023-05-22T06:37:09.128Z,49.50
2023-05-22T06:39:41.115Z,48.81
2023-05-22T06:42:33.795Z,48.82
2023-05-22T06:45:20.107Z,49.10
2023-05-22T06:48:08.902Z,49.19
2023-05-22T06:50:43.664Z,49.27
2023-05-22T06:53:11.892Z,48.23
2023-05-22T06:55:40.956Z,47.81
2023-05-22T06:58:14.524Z,47.64
2023-05-22T07:00:44.722Z,47.66
2023-05-22T07:03:20.734Z,47.80
2023-05-22T07:06:12.394Z,45.91
2023-05-22T07:08:40.087Z,44.23
2023-05-22T07:11:08.791Z,44.06
2023-05-22T07:13:37.073Z,44.28
2023-05-22T07:16:05.079Z,44.12
2023-05-22T07:18:33.306Z,43.22
2023-05-22T07:21:01.693Z,43.36
2023-05-22T07:23:29.455Z,43.14
2023-05-22T07:25:56.845Z,43.09
2023-05-22T07:28:28.942Z,41.18
2023-05-22T07:31:03.721Z,40.07
2023-05-22T07:33:31.692Z,40.24
2023-05-22T07:35:59.750Z,40.07
2023-05-22T07:38:27.283Z,40.69
2023-05-22T07:41:01.405Z,41.02
2023-05-22T07:43:30.970Z,40.77
2023-05-22T07:46:00.075Z,40.52
2023-05-22T07:48:32.277Z,40.58
2023-05-22T07:51:00.077Z,39.66
2023-05-22T07:53:27.775Z,39.70
2023-05-22T07:55:58.144Z,40.50
2023-05-22T07:58:26.958Z,40.44
2023-05-22T08:00:56.018Z,40.10
2023-05-22T08:03:24.375Z,39.43
2023-05-22T08:05:51.904Z,37.60
2023-05-22T08:08:19.437Z,35.76
2023-05-22T08:11:03.054Z,36.35
2023-05-22T08:13:31.637Z,37.41
2023-05-22T08:16:00.661Z,36.94
2023-05-22T08:18:29.964Z,38.42
2023-05-22T08:20:58.553Z,37.87
2023-05-22T08:23:25.835Z,37.59
2023-05-22T08:25:53.501Z,38.26
2023-05-22T08:28:21.040Z,38.50
2023-05-22T08:30:48.977Z,38.20
2023-05-22T08:33:16.653Z,38.04
2023-05-22T08:35:44.644Z,38.59
2023-05-22T08:38:12.188Z,38.90
2023-05-22T08:40:41.283Z,38.75
2023-05-22T08:43:10.392Z,37.60
2023-05-22T08:45:42.499Z,37.42
2023-05-22T08:48:13.221Z,38.10
2023-05-22T08:50:44.571Z,38.58
2023-05-22T08:53:13.732Z,37.95
2023-05-22T08:55:41.616Z,38.16
2023-05-22T08:58:10.819Z,38.53
2023-05-22T09:00:38.689Z,38.53
2023-05-22T09:03:10.515Z,37.91
2023-05-22T09:05:44.114Z,37.19
2023-05-22T09:08:19.856Z,37.17
2023-05-22T09:10:48.450Z,35.83
2023-05-22T09:13:44.782Z,36.15
2023-05-22T09:16:13.460Z,37.37
2023-05-22T09:18:42.692Z,37.22
2023-05-22T09:21:28.970Z,36.83
2023-05-22T09:24:01.716Z,37.12
2023-05-22T09:26:29.937Z,36.99
2023-05-22T09:28:59.776Z,36.44
2023-05-22T09:31:29.554Z,36.30
2023-05-22T09:33:56.828Z,36.73
2023-05-22T09:36:33.921Z,35.67
2023-05-22T09:39:02.377Z,35.50
2023-05-22T09:41:35.965Z,35.64
2023-05-22T09:44:16.711Z,35.01
2023-05-22T09:46:46.204Z,35.08
2023-05-22T09:49:16.166Z,35.03
2023-05-22T09:51:48.194Z,34.80
2023-05-22T09:54:17.491Z,34.94
2023-05-22T09:56:49.456Z,35.50
2023-05-22T09:59:20.795Z,34.14
2023-05-22T10:01:50.899Z,33.96
2023-05-22T10:04:18.806Z,33.09
2023-05-22T10:06:51.451Z,33.50
2023-05-22T10:09:23.578Z,34.15
2023-05-22T10:11:55.285Z,35.65
2023-05-22T10:14:22.521Z,34.16
2023-05-22T10:16:51.605Z,34.48
2023-05-22T10:19:18.900Z,34.96
2023-05-22T10:21:48.284Z,35.09
2023-05-22T10:24:15.580Z,36.23
2023-05-22T10:26:44.521Z,35.94
2023-05-22T10:29:22.364Z,35.47
2023-05-22T10:32:03.463Z,35.46
2023-05-22T10:35:08.492Z,35.32
2023-05-22T10:37:49.004Z,34.69
2023-05-22T10:40:29.323Z,34.57
2023-05-22T10:42:58.856Z,34.89
2023-05-22T10:45:27.916Z,35.46
2023-05-22T10:48:08.893Z,34.83
2023-05-22T10:50:36.520Z,35.05
2023-05-22T10:53:28.143Z,34.38
2023-05-22T10:55:57.043Z,34.57
2023-05-22T10:58:32.516Z,33.84
2023-05-22T11:01:12.918Z,33.60
2023-05-22T11:03:57.506Z,33.90
2023-05-22T11:07:04.780Z,34.57
2023-05-22T11:09:48.183Z,34.09
2023-05-22T11:12:27.776Z,33.08
2023-05-22T11:15:07.009Z,33.08
2023-05-22T11:17:41.723Z,33.07
2023-05-22T11:20:22.496Z,32.29
2023-05-22T11:22:56.388Z,32.06
2023-05-22T11:25:25.233Z,32.04
2023-05-22T11:27:54.063Z,32.50
2023-05-22T11:30:27.069Z,32.23
2023-05-22T11:32:54.763Z,32.14
2023-05-22T11:35:22.941Z,32.34
2023-05-22T11:37:53.894Z,32.63
2023-05-22T11:40:29.552Z,31.67
2023-05-22T11:42:57.183Z,32.84
2023-05-22T11:45:25.410Z,32.46
2023-05-22T11:47:52.816Z,32.03
2023-05-22T11:50:41.202Z,31.98
2023-05-22T11:53:08.482Z,31.94
2023-05-22T11:55:36.875Z,32.66
2023-05-22T11:58:04.230Z,32.55
2023-05-22T12:00:32.068Z,32.50
2023-05-22T12:02:59.753Z,32.15
2023-05-22T12:05:27.532Z,31.90
2023-05-22T12:07:54.905Z,32.35
2023-05-22T12:10:23.014Z,32.91
2023-05-22T12:12:50.126Z,32.34
2023-05-22T12:15:21.619Z,32.32
2023-05-22T12:17:50.478Z,34.22
2023-05-22T12:20:19.699Z,32.81
2023-05-22T12:22:49.724Z,32.06
2023-05-22T12:25:18.102Z,31.89
2023-05-22T12:27:46.627Z,31.98
2023-05-22T12:30:15.233Z,31.73
2023-05-22T12:32:49.060Z,32.79
2023-05-22T12:35:17.398Z,32.53
2023-05-22T12:37:51.718Z,32.07
2023-05-22T12:40:19.558Z,32.66
2023-05-22T12:42:48.165Z,33.25
2023-05-22T12:45:18.220Z,32.79
2023-05-22T12:47:45.833Z,32.70
2023-05-22T12:50:13.920Z,31.67
2023-05-22T12:52:41.167Z,31.97
2023-05-22T12:55:10.742Z,31.65
2023-05-22T12:57:37.799Z,31.98
2023-05-22T13:00:06.368Z,31.65
2023-05-22T13:02:34.035Z,31.64
2023-05-22T13:05:01.454Z,32.61
2023-05-22T13:07:29.233Z,31.85
2023-05-22T13:09:56.501Z,32.30
2023-05-22T13:12:23.865Z,32.17
2023-05-22T13:14:51.573Z,31.46
2023-05-22T13:17:19.039Z,31.89
2023-05-22T13:19:46.339Z,32.73
2023-05-22T13:22:14.863Z,32.16
2023-05-22T13:24:42.071Z,32.44
2023-05-22T13:27:09.798Z,31.92
2023-05-22T13:29:36.995Z,32.08
2023-05-22T13:32:04.988Z,32.02
2023-05-22T13:34:32.721Z,32.46
2023-05-22T13:37:00.021Z,31.94
2023-05-22T13:39:27.673Z,32.21
2023-05-22T13:41:55.048Z,31.20
2023-05-22T13:44:23.292Z,32.59
2023-05-22T13:46:50.660Z,32.29
2023-05-22T13:49:18.482Z,32.44
2023-05-22T13:51:46.260Z,32.67
2023-05-22T13:54:14.308Z,32.37
2023-05-22T13:56:41.929Z,32.35
2023-05-22T13:59:09.570Z,31.68
2023-05-22T14:01:37.483Z,32.68
2023-05-22T14:04:05.556Z,33.21
2023-05-22T14:06:33.234Z,31.93
2023-05-22T14:09:00.794Z,31.94
2023-05-22T14:11:28.048Z,32.74
2023-05-22T14:13:55.591Z,31.88
2023-05-22T14:16:23.202Z,32.40
2023-05-22T14:18:51.968Z,32.09
2023-05-22T14:21:20.025Z,31.90
2023-05-22T14:23:47.378Z,32.47
2023-05-22T14:26:14.919Z,32.23
2023-05-22T14:28:42.998Z,32.99
2023-05-22T14:31:10.387Z,32.35
2023-05-22T14:33:38.410Z,31.97
2023-05-22T14:36:06.111Z,31.88
2023-05-22T14:38:34.523Z,31.86
2023-05-22T14:41:01.748Z,31.97
2023-05-22T14:43:30.117Z,31.08
2023-05-22T14:45:58.282Z,30.95
2023-05-22T14:48:26.688Z,29.41
2023-05-22T14:50:54.124Z,28.87
2023-05-22T14:53:22.359Z,28.19
2023-05-22T14:55:50.059Z,26.95
2023-05-22T14:58:17.294Z,25.87
2023-05-22T15:00:46.217Z,26.71
2023-05-22T15:03:15.546Z,26.75
2023-05-22T15:05:42.874Z,25.47
2023-05-22T15:08:10.536Z,25.61
2023-05-22T15:10:38.032Z,25.31
2023-05-22T15:13:05.955Z,25.30
2023-05-22T15:15:33.334Z,25.76
2023-05-22T15:18:02.805Z,24.39
2023-05-22T15:20:31.121Z,24.56
2023-05-22T15:22:59.767Z,24.32
2023-05-22T15:25:26.914Z,24.08
2023-05-22T15:27:54.246Z,23.79
2023-05-22T15:30:23.783Z,25.33
2023-05-22T15:32:52.191Z,25.76
2023-05-22T15:35:19.822Z,25.19
2023-05-22T15:37:49.428Z,24.95
2023-05-22T15:40:18.451Z,24.51
2023-05-22T15:42:45.841Z,23.97
2023-05-22T15:45:13.592Z,24.10
2023-05-22T15:47:42.890Z,23.88
2023-05-22T15:50:11.605Z,24.02
2023-05-22T15:52:39.652Z,24.72
2023-05-22T15:55:07.452Z,25.79
2023-05-22T15:57:35.604Z,26.55
2023-05-22T16:00:02.787Z,27.18
2023-05-22T16:02:31.988Z,27.01
2023-05-22T16:04:59.671Z,27.14
2023-05-22T16:07:27.613Z,27.66
2023-05-22T16:09:55.096Z,28.44
2023-05-22T16:12:22.352Z,28.36
2023-05-22T16:14:49.822Z,29.05
2023-05-22T16:17:17.609Z,29.89
2023-05-22T16:19:44.918Z,29.79
2023-05-22T16:22:21.380Z,30.03
2023-05-22T16:24:49.044Z,30.28
2023-05-22T16:27:16.097Z,31.32
2023-05-22T16:29:43.881Z,30.77
2023-05-22T16:32:11.170Z,30.95
2023-05-22T16:34:38.764Z,30.80
2023-05-22T16:37:06.604Z,31.41
2023-05-22T16:39:34.097Z,30.86
2023-05-22T16:42:01.788Z,31.66
2023-05-22T16:44:29.067Z,31.71
2023-05-22T16:46:56.387Z,31.28
2023-05-22T16:49:23.960Z,31.88
2023-05-22T16:51:51.273Z,32.05
2023-05-22T16:54:18.637Z,32.61
2023-05-22T16:56:46.420Z,32.84
2023-05-22T16:59:13.753Z,32.75
2023-05-22T17:01:41.990Z,32.62
2023-05-22T17:04:11.300Z,32.64
2023-05-22T17:06:38.526Z,32.79
2023-05-22T17:09:05.746Z,33.32
2023-05-22T17:11:32.670Z,33.14
2023-05-22T17:14:01.017Z,33.20
2023-05-22T17:16:28.297Z,33.81
2023-05-22T17:18:55.689Z,33.48
2023-05-22T17:21:24.362Z,33.69
2023-05-22T17:23:51.679Z,34.30
2023-05-22T17:26:18.774Z,34.57
2023-05-22T17:28:46.823Z,35.09
2023-05-22T17:31:14.968Z,34.92
2023-05-22T17:33:43.652Z,35.12
2023-05-22T17:36:10.789Z,35.40
2023-05-22T17:38:38.703Z,35.40
2023-05-22T17:41:05.637Z,35.47
2023-05-22T17:43:35.312Z,35.65
2023-05-22T17:46:02.593Z,35.93
2023-05-22T17:48:30.261Z,35.97
2023-05-22T17:50:57.348Z,36.14
2023-05-22T17:53:24.716Z,36.53
2023-05-22T17:55:55.588Z,36.79
2023-05-22T17:58:22.961Z,37.06
2023-05-22T18:00:50.110Z,37.09
2023-05-22T18:03:27.006Z,37.32
2023-05-22T18:05:54.386Z,37.35
2023-05-22T18:08:21.820Z,37.34
2023-05-22T18:10:49.654Z,37.39
2023-05-22T18:13:19.283Z,37.66
2023-05-22T18:15:46.520Z,38.06
2023-05-22T18:18:13.873Z,38.33
2023-05-22T18:20:41.357Z,38.20
2023-05-22T18:23:08.662Z,38.76
2023-05-22T18:25:36.566Z,38.74
2023-05-22T18:28:03.896Z,39.05
2023-05-22T18:30:32.405Z,39.34
2023-05-22T18:32:59.755Z,39.45
2023-05-22T18:35:27.164Z,39.67
2023-05-22T18:37:54.347Z,40.01
2023-05-22T18:40:21.808Z,40.56
2023-05-22T18:42:48.948Z,40.65
2023-05-22T18:45:16.406Z,41.02
2023-05-22T18:47:43.808Z,40.94
2023-05-22T18:50:11.547Z,41.31
2023-05-22T18:52:39.992Z,41.58
2023-05-22T18:55:08.107Z,42.04
2023-05-22T18:57:35.515Z,42.47
2023-05-22T19:00:03.063Z,42.70
2023-05-22T19:02:30.875Z,43.18
2023-05-22T19:04:58.204Z,43.42
2023-05-22T19:07:26.013Z,43.57
2023-05-22T19:09:52.976Z,43.72
2023-05-22T19:12:20.696Z,43.84
2023-05-22T19:14:48.525Z,44.18
2023-05-22T19:17:16.454Z,44.12
2023-05-22T19:19:44.694Z,44.92
2023-05-22T19:22:11.946Z,45.76
2023-05-22T19:24:39.683Z,45.67
2023-05-22T19:27:07.139Z,45.76
2023-05-22T19:29:34.266Z,46.27
2023-05-22T19:32:01.898Z,46.68
2023-05-22T19:34:29.060Z,46.98
2023-05-22T19:36:58.025Z,47.08
2023-05-22T19:39:25.549Z,47.84
2023-05-22T19:41:54.485Z,47.66
2023-05-22T19:44:21.459Z,47.71
2023-05-22T19:46:48.828Z,47.86
2023-05-22T19:49:16.526Z,48.08
2023-05-22T19:51:43.820Z,48.58
2023-05-22T19:54:11.465Z,48.64
2023-05-22T19:56:39.236Z,48.83
2023-05-22T19:59:06.393Z,49.13
2023-05-22T20:01:33.685Z,49.34
2023-05-22T20:04:01.415Z,49.62
2023-05-22T20:06:31.636Z,49.87
2023-05-22T20:08:59.332Z,50.05
2023-05-22T20:11:29.004Z,50.36
2023-05-22T20:13:56.310Z,50.47
2023-05-22T20:16:28.435Z,50.79
2023-05-22T20:18:56.716Z,51.48
2023-05-22T20:21:23.981Z,51.68
2023-05-22T20:23:51.489Z,52.17
2023-05-22T20:26:19.845Z,52.24
2023-05-22T20:28:47.427Z,52.28
2023-05-22T20:31:14.770Z,52.45
2023-05-22T20:33:41.791Z,52.61
2023-05-22T20:36:09.420Z,52.52
2023-05-22T20:38:36.616Z,52.52
2023-05-22T20:41:08.626Z,52.51
2023-05-22T20:43:37.186Z,52.58
2023-05-22T20:46:04.618Z,52.62
2023-05-22T20:48:31.862Z,52.70
2023-05-22T20:50:59.489Z,52.78
2023-05-22T20:53:26.705Z,52.85
2023-05-22T20:55:54.280Z,52.82
2023-05-22T20:58:23.143Z,52.77
2023-05-22T21:00:50.656Z,52.88
2023-05-22T21:03:18.358Z,52.93
2023-05-22T21:05:45.968Z,52.91
2023-05-22T21:08:13.404Z,53.02
2023-05-22T21:10:40.863Z,53.14
2023-05-22T21:13:08.737Z,53.35
2023-05-22T21:15:37.081Z,53.51
2023-05-22T21:18:04.074Z,53.64
2023-05-22T21:20:31.679Z,53.95
2023-05-22T21:22:58.601Z,54.33
2023-05-22T21:25:26.419Z,54.30
2023-05-22T21:27:54.567Z,54.42
2023-05-22T21:30:22.068Z,54.84
2023-05-22T21:32:49.245Z,55.03
2023-05-22T21:35:16.760Z,55.28
2023-05-22T21:37:43.743Z,55.57
2023-05-22T21:40:11.853Z,56.06
2023-05-22T21:42:46.371Z,56.33
2023-05-22T21:45:15.036Z,56.70
2023-05-22T21:47:42.218Z,57.07
2023-05-22T21:50:10.050Z,57.27
2023-05-22T21:52:37.357Z,57.52
2023-05-22T21:55:05.049Z,57.70
2023-05-22T21:57:32.184Z,57.84
2023-05-22T21:59:59.573Z,58.04
2023-05-22T22:02:26.539Z,58.46
2023-05-22T22:04:54.302Z,58.71
2023-05-22T22:07:21.274Z,58.78
2023-05-22T22:09:50.038Z,58.96
2023-05-22T22:12:17.095Z,59.05
2023-05-22T22:14:44.382Z,59.28
2023-05-22T22:17:11.896Z,59.65
2023-05-22T22:19:41.775Z,59.83
2023-05-22T22:22:09.384Z,59.93
2023-05-22T22:24:37.252Z,60.09
2023-05-22T22:27:04.873Z,60.28
2023-05-22T22:29:32.446Z,60.49
2023-05-22T22:31:59.668Z,60.69
2023-05-22T22:34:26.983Z,60.80
2023-05-22T22:36:54.612Z,60.82
2023-05-22T22:39:21.990Z,60.97
2023-05-22T22:41:49.094Z,61.18
2023-05-22T22:44:16.627Z,61.33
2023-05-22T22:46:44.111Z,61.49
2023-05-22T22:49:11.371Z,61.76
2023-05-22T22:51:38.658Z,61.92
2023-05-22T22:54:05.908Z,62.16
2023-05-22T22:56:33.161Z,62.29
2023-05-22T22:59:00.513Z,62.26
2023-05-22T23:01:27.936Z,62.43
2023-05-22T23:03:55.303Z,62.49
2023-05-22T23:06:23.889Z,62.65
2023-05-22T23:08:51.120Z,62.87
2023-05-22T23:11:18.376Z,62.91
2023-05-22T23:13:45.549Z,63.00
2023-05-22T23:16:12.592Z,63.17
2023-05-22T23:18:40.424Z,63.32
2023-05-22T23:21:07.626Z,63.56
2023-05-22T23:23:35.094Z,63.69
2023-05-22T23:26:02.245Z,64.24
2023-05-22T23:28:30.035Z,64.35
2023-05-22T23:30:57.570Z,64.45
2023-05-22T23:33:24.970Z,64.49
2023-05-22T23:35:51.869Z,64.36
2023-05-22T23:38:19.301Z,64.34
2023-05-22T23:40:46.240Z,64.58
2023-05-22T23:43:13.819Z,64.66
2023-05-22T23:45:40.922Z,64.88
2023-05-22T23:48:08.265Z,65.05
2023-05-22T23:50:36.348Z,65.09
2023-05-22T23:53:04.022Z,65.06
2023-05-22T23:55:31.565Z,65.08
2023-05-22T23:57:58.750Z,65.25
